METAR Data
IDs: Format: Raw Decoded Include TAF

Data at: 2309 UTC 10 May 2021

KDRO 102253Z AUTO 27021G33KT 10SM OVC100 19/M07 A2992 RMK AO2 PK WND 29033/2248 WSHFT 2231 SLP071 T01891067
KDRO 102251Z AUTO 27019G33KT 10SM OVC100 19/M07 A2992 RMK AO2 PK WND 29033/2248 WSHFT 2231
KDRO 102153Z AUTO 25017G32KT 10SM FEW075 BKN095 17/M06 A2994 RMK AO2 PK WND 25033/2056 SLP085 T01721061
KDRO 102053Z AUTO 23021G33KT 10SM BKN100 16/M04 A2994 RMK AO2 PK WND 27051/1959 RAB01E10 SLP085 P0000 60000 T01611044 58005
KDRO 101953Z AUTO 27018G33KT 10SM FEW055 SCT070 OVC095 16/M04 A2996 RMK AO2 PK WND 30046/1935 SLP088 T01611044
KDRO 101853Z AUTO 28027G37KT 10SM FEW080 SCT100 SCT120 17/M07 A2997 RMK AO2 PK WND 30046/1830 SLP088 T01671067
KDRO 101753Z AUTO 28024G30KT 10SM SCT100 18/M07 A2996 RMK AO2 PK WND 25032/1736 SLP077 T01781067 10189 20033 57007
KDRO 101653Z AUTO 25015G24KT 10SM CLR 18/M08 A2997 RMK AO2 PK WND 23026/1641 SLP086 T01831083
KDRO 101553Z AUTO 23008KT 10SM CLR 15/M08 A2998 RMK AO2 SLP092 T01501083
KDRO 101453Z AUTO 06004KT 10SM CLR 12/M03 A2998 RMK AO2 SLP098 T01171033 50006
KDRO 101353Z AUTO 05003KT 10SM CLR 08/M06 A2999 RMK AO2 SLP105 T00781056
KDRO 101253Z AUTO 01004KT 10SM FEW120 03/M07 A2997 RMK AO2 SLP109 T00331067
KDRO 101153Z AUTO 04004KT 10SM CLR 06/M06 A2996 RMK AO2 SLP095 T00561061 10117 20044 56004
KDRO 101053Z AUTO 07003KT 10SM CLR 07/M06 A2996 RMK AO2 SLP090 T00721061
KDRO 100953Z AUTO 10005KT 10SM OVC110 07/M07 A2996 RMK AO2 SLP089 T00721072
KDRO 100853Z AUTO 00000KT 10SM BKN110 08/M09 A2997 RMK AO2 SLP091 T00781094 53001
KDRO 100753Z AUTO 05009KT 10SM BKN120 09/M09 A2997 RMK AO2 SLP088 T00891094
KDRO 100653Z AUTO 11004KT 10SM SCT110 10/M12 A2997 RMK AO2 SLP082 T01001117 402001011
KDRO 100553Z AUTO 34005KT 10SM OVC110 12/M12 A2997 RMK AO2 SLP082 T01221117 10172 20089 50003
KDRO 100453Z AUTO 04005KT 10SM BKN110 09/M12 A2997 RMK AO2 SLP091 T00941122
KDRO 100353Z AUTO 20004KT 10SM SCT110 11/M13 A2997 RMK AO2 SLP098 T01111128
KDRO 100253Z AUTO 30006KT 10SM CLR 13/M13 A2996 RMK AO2 SLP095 T01331128 53004
KDRO 100153Z AUTO 31010KT 10SM CLR 15/M13 A2994 RMK AO2 SLP099 T01501128
KDRO 100053Z AUTO 29012G19KT 10SM CLR 16/M13 A2994 RMK AO2 PK WND 26028/2359 SLP103 T01611133
KDRO 092353Z AUTO 29014G30KT 10SM CLR 17/M13 A2995 RMK AO2 PK WND 29037/2257 SLP105 T01721128 10200 20167 58008
KDRO 092253Z AUTO 31024G35KT 10SM CLR 18/M13 A2996 RMK AO2 PK WND 28042/2212 SLP104 T01781128
KDRO 092153Z AUTO 27020G36KT 10SM CLR 18/M13 A2998 RMK AO2 PK WND 25041/2107 SLP113 T01831133
KDRO 092053Z AUTO 27026G40KT 10SM FEW120 18/M16 A2998 RMK AO2 PK WND 25040/2047 SLP104 T01831156 56015
KDRO 091953Z AUTO 27020G32KT 10SM CLR 18/M15 A3000 RMK AO2 PK WND 28032/1924 SLP114 T01781150
KDRO 091853Z AUTO 26016G30KT 10SM CLR 18/M13 A3001 RMK AO2 PK WND 27030/1849 SLP115 T01831128
KDRO 091753Z AUTO 27014G24KT 10SM CLR 18/M13 A3003 RMK AO2 PK WND 26029/1708 SLP123 T01781128 10178 21011 55001
KDRO 091653Z AUTO 26012G21KT 10SM CLR 17/M13 A3002 RMK AO2 SLP106 T01671133
KDRO 091553Z AUTO 24008KT 10SM CLR 13/M08 A3003 RMK AO2 SLP119 T01331078
KDRO 091453Z AUTO 00000KT 10SM CLR 10/M04 A3004 RMK AO2 SLP121 T01001039 51010
KDRO 091353Z AUTO 05003KT 10SM CLR 05/M05 A3003 RMK AO2 SLP128 T00501050
KDRO 091253Z AUTO 00000KT 10SM CLR 01/M07 A3002 RMK AO2 SLP126 T00111072
KDRO 091153Z AUTO 00000KT 10SM CLR 00/M07 A3000 RMK AO2 SLP120 T00001067 10072 21006 51007